Time;durP1;ratioP1;P1;durP2;ratioP2;P2;SDS_P1;SDS_P2;PMS_P1;PMS_P2;Temp;Humidity;BMP_temperature;BMP_pressure;BME280_temperature;BME280_humidity;BME280_pressure;Samples;Min_cycle;Max_cycle;Signal;HPM_P1;HPM_P2
2021/06/29 00:02:11;;;;;;;10.23;6.70;;;;;;;;;;5077493;28;20453;-70
2021/06/29 00:04:39;;;;;;;7.10;6.40;;;;;;;;;;5077876;28;20557;-70
2021/06/29 00:07:07;;;;;;;6.83;6.10;;;;;;;;;;5077308;28;20518;-70
2021/06/29 00:09:36;;;;;;;8.10;6.90;;;;;;;;;;5078213;28;20452;-70
2021/06/29 00:12:04;;;;;;;7.20;5.73;;;;;;;;;;5077623;28;20476;-70
2021/06/29 00:14:34;;;;;;;7.97;6.40;;;;;;;;;;5076809;28;20783;-70
2021/06/29 00:17:02;;;;;;;8.40;7.50;;;;;;;;;;5077388;28;20455;-70
2021/06/29 00:19:29;;;;;;;7.70;6.70;;;;;;;;;;5077280;28;20563;-70
2021/06/29 00:21:57;;;;;;;7.30;6.60;;;;;;;;;;5077623;28;20502;-70
2021/06/29 00:24:25;;;;;;;7.87;7.07;;;;;;;;;;5077311;28;20798;-70
2021/06/29 00:26:53;;;;;;;7.57;6.30;;;;;;;;;;5078675;28;20913;-70
2021/06/29 00:29:20;;;;;;;6.63;6.00;;;;;;;;;;5077588;28;20480;-70
2021/06/29 00:31:50;;;;;;;6.87;6.17;;;;;;;;;;5077279;28;20452;-70
2021/06/29 00:34:17;;;;;;;9.23;6.90;;;;;;;;;;5077788;28;20448;-70
2021/06/29 00:36:46;;;;;;;7.70;6.70;;;;;;;;;;5078563;28;20460;-70
2021/06/29 00:39:14;;;;;;;8.67;7.60;;;;;;;;;;5077571;28;20472;-70
2021/06/29 00:41:42;;;;;;;7.70;7.00;;;;;;;;;;5078552;28;20449;-71
2021/06/29 00:44:19;;;;;;;7.87;7.07;;;;;;;;;;5078111;28;20496;-70
2021/06/29 00:46:47;;;;;;;9.10;6.60;;;;;;;;;;5077154;28;20455;-70
2021/06/29 00:49:20;;;;;;;9.23;8.33;;;;;;;;;;5079089;28;20460;-70
2021/06/29 00:51:47;;;;;;;9.70;8.80;;;;;;;;;;5077308;28;20457;-70
2021/06/29 00:54:16;;;;;;;12.90;9.37;;;;;;;;;;5077199;28;20461;-70
2021/06/29 00:56:45;;;;;;;11.20;8.93;;;;;;;;;;5076682;28;20791;-70
2021/06/29 00:59:13;;;;;;;8.40;7.50;;;;;;;;;;5076412;28;20535;-71
2021/06/29 01:01:40;;;;;;;9.10;7.83;;;;;;;;;;5076317;28;20449;-71
2021/06/29 01:04:08;;;;;;;8.50;7.70;;;;;;;;;;5077104;28;20489;-71
2021/06/29 01:06:39;;;;;;;8.73;7.83;;;;;;;;;;5076832;28;20453;-71
2021/06/29 01:09:07;;;;;;;9.03;7.70;;;;;;;;;;5076720;28;20525;-70
2021/06/29 01:11:42;;;;;;;9.10;8.13;;;;;;;;;;5077288;28;20527;-70
2021/06/29 01:14:13;;;;;;;8.47;7.57;;;;;;;;;;5075834;28;20581;-71
2021/06/29 01:16:41;;;;;;;8.80;7.90;;;;;;;;;;5076006;28;20448;-71
2021/06/29 01:19:10;;;;;;;8.80;7.30;;;;;;;;;;5076250;28;20521;-70
2021/06/29 01:21:41;;;;;;;9.30;7.53;;;;;;;;;;5076223;28;20840;-70
2021/06/29 01:24:13;;;;;;;9.40;7.73;;;;;;;;;;5087102;28;21166;-71
2021/06/29 01:26:46;;;;;;;8.27;7.00;;;;;;;;;;5080480;28;20748;-70
2021/06/29 01:29:14;;;;;;;8.60;7.80;;;;;;;;;;5075948;28;20498;-70
2021/06/29 01:31:41;;;;;;;8.53;7.67;;;;;;;;;;5076413;28;20454;-70
2021/06/29 01:34:09;;;;;;;9.23;8.37;;;;;;;;;;5087769;28;20455;-70
2021/06/29 01:36:38;;;;;;;8.87;7.90;;;;;;;;;;5097186;28;20448;-70
2021/06/29 01:39:09;;;;;;;8.20;7.40;;;;;;;;;;5096748;28;20468;-70
2021/06/29 01:41:37;;;;;;;7.83;7.00;;;;;;;;;;5096523;28;20458;-70
2021/06/29 01:44:08;;;;;;;9.17;8.27;;;;;;;;;;5096635;28;20479;-70
2021/06/29 01:46:38;;;;;;;9.20;8.10;;;;;;;;;;5096112;28;20989;-70
2021/06/29 01:49:06;;;;;;;8.20;7.40;;;;;;;;;;5094852;28;20491;-71
2021/06/29 01:51:34;;;;;;;8.63;7.83;;;;;;;;;;5095089;28;20524;-70
2021/06/29 01:54:01;;;;;;;9.00;8.00;;;;;;;;;;5096622;28;20860;-71
2021/06/29 01:56:33;;;;;;;9.43;8.63;;;;;;;;;;5096635;28;20948;-71
2021/06/29 01:59:05;;;;;;;9.20;8.30;;;;;;;;;;5095851;28;20545;-71
2021/06/29 02:01:33;;;;;;;10.23;9.00;;;;;;;;;;5096123;28;20473;-71
2021/06/29 02:04:01;;;;;;;8.43;7.60;;;;;;;;;;5096065;28;20549;-70
2021/06/29 02:06:29;;;;;;;8.30;7.50;;;;;;;;;;5096445;28;20508;-70
2021/06/29 02:08:57;;;;;;;8.80;7.90;;;;;;;;;;5096451;28;20470;-71
2021/06/29 02:11:25;;;;;;;8.73;7.77;;;;;;;;;;5097450;28;20821;-71
2021/06/29 02:13:54;;;;;;;10.27;7.30;;;;;;;;;;5099820;28;20791;-71
2021/06/29 02:16:22;;;;;;;7.50;6.80;;;;;;;;;;5100125;28;20521;-71
2021/06/29 02:18:50;;;;;;;10.07;8.20;;;;;;;;;;5100574;28;20907;-71
2021/06/29 02:21:18;;;;;;;10.33;8.27;;;;;;;;;;5100039;28;20473;-70
2021/06/29 02:23:46;;;;;;;9.60;8.20;;;;;;;;;;5100392;28;20762;-70
2021/06/29 02:26:14;;;;;;;9.97;8.97;;;;;;;;;;5099401;28;20502;-70
2021/06/29 02:28:42;;;;;;;8.07;7.33;;;;;;;;;;5099675;28;20752;-70
2021/06/29 02:31:13;;;;;;;11.63;8.57;;;;;;;;;;5100082;28;20459;-70
2021/06/29 02:33:41;;;;;;;9.13;8.17;;;;;;;;;;5100500;28;20444;-72
2021/06/29 02:36:09;;;;;;;12.10;8.90;;;;;;;;;;5099770;28;20455;-70
2021/06/29 02:38:36;;;;;;;10.60;8.43;;;;;;;;;;5099659;28;20839;-71
2021/06/29 02:41:04;;;;;;;9.30;8.33;;;;;;;;;;5100388;28;20459;-70
2021/06/29 02:43:36;;;;;;;10.80;7.90;;;;;;;;;;5100299;28;20459;-70
2021/06/29 02:46:04;;;;;;;9.20;8.30;;;;;;;;;;5099668;28;20623;-71
2021/06/29 02:48:33;;;;;;;8.90;8.00;;;;;;;;;;5099569;28;20860;-70
2021/06/29 02:51:01;;;;;;;9.60;8.67;;;;;;;;;;5098876;28;20483;-70
2021/06/29 02:53:29;;;;;;;10.37;9.37;;;;;;;;;;5099553;28;20456;-72
2021/06/29 02:55:57;;;;;;;8.80;7.90;;;;;;;;;;5099068;28;20452;-70
2021/06/29 02:58:24;;;;;;;16.40;9.60;;;;;;;;;;5099239;28;20447;-70
2021/06/29 03:00:52;;;;;;;9.30;8.37;;;;;;;;;;5096453;28;20528;-69
2021/06/29 03:03:20;;;;;;;8.60;7.80;;;;;;;;;;5098472;28;20765;-70
2021/06/29 03:05:49;;;;;;;10.70;8.67;;;;;;;;;;5098977;28;20486;-70
2021/06/29 03:08:17;;;;;;;11.23;8.23;;;;;;;;;;5098933;28;20936;-70
2021/06/29 03:10:45;;;;;;;10.70;9.60;;;;;;;;;;5098532;28;20451;-71
2021/06/29 03:13:13;;;;;;;9.87;8.87;;;;;;;;;;5097925;28;20516;-70
2021/06/29 03:15:42;;;;;;;9.20;8.30;;;;;;;;;;5099006;28;20466;-70
2021/06/29 03:18:10;;;;;;;9.00;8.10;;;;;;;;;;5098850;28;20459;-70
2021/06/29 03:20:39;;;;;;;11.17;8.33;;;;;;;;;;5097860;28;20463;-70
2021/06/29 03:23:08;;;;;;;9.80;8.80;;;;;;;;;;5098066;28;20455;-70
2021/06/29 03:25:37;;;;;;;11.97;8.83;;;;;;;;;;5097920;28;20942;-71
2021/06/29 03:28:05;;;;;;;9.63;8.73;;;;;;;;;;5098530;28;20462;-70
2021/06/29 03:30:33;;;;;;;9.70;8.60;;;;;;;;;;5098423;28;20524;-71
2021/06/29 03:33:01;;;;;;;9.07;7.67;;;;;;;;;;5098138;28;20487;-71
2021/06/29 03:35:29;;;;;;;9.60;8.70;;;;;;;;;;5098574;28;20451;-71
2021/06/29 03:37:57;;;;;;;10.00;9.00;;;;;;;;;;5098167;28;20506;-71
2021/06/29 03:40:27;;;;;;;10.30;9.30;;;;;;;;;;5098262;28;20521;-71
2021/06/29 03:42:55;;;;;;;8.27;7.53;;;;;;;;;;5098561;28;20788;-71
2021/06/29 03:45:23;;;;;;;10.40;8.90;;;;;;;;;;5098119;28;20519;-71
2021/06/29 03:47:50;;;;;;;8.93;8.03;;;;;;;;;;5097636;28;20455;-71
2021/06/29 03:50:18;;;;;;;10.80;8.30;;;;;;;;;;5097785;28;20455;-70
2021/06/29 03:52:46;;;;;;;9.70;8.50;;;;;;;;;;5097796;28;20455;-71
2021/06/29 03:55:14;;;;;;;8.97;8.07;;;;;;;;;;5098189;28;20452;-70
2021/06/29 03:57:43;;;;;;;9.30;8.17;;;;;;;;;;5098306;28;20513;-70
2021/06/29 04:00:12;;;;;;;11.20;10.10;;;;;;;;;;5098221;28;20468;-70
2021/06/29 04:02:39;;;;;;;9.70;8.70;;;;;;;;;;5098214;28;20448;-71
2021/06/29 04:05:09;;;;;;;9.47;7.97;;;;;;;;;;5097242;28;20476;-71
2021/06/29 04:07:37;;;;;;;8.20;7.37;;;;;;;;;;5097724;28;20448;-72
2021/06/29 04:10:05;;;;;;;8.40;7.57;;;;;;;;;;5096576;28;20625;-71
2021/06/29 04:12:33;;;;;;;9.00;8.20;;;;;;;;;;5097575;28;20740;-71
2021/06/29 04:15:04;;;;;;;8.73;7.43;;;;;;;;;;5097375;28;20443;-70
2021/06/29 04:17:32;;;;;;;9.13;8.23;;;;;;;;;;5096864;28;20458;-71
2021/06/29 04:20:00;;;;;;;9.10;8.10;;;;;;;;;;5097229;28;20443;-70
2021/06/29 04:22:35;;;;;;;10.10;9.10;;;;;;;;;;5095770;28;20447;-69
2021/06/29 04:25:10;;;;;;;9.43;8.30;;;;;;;;;;5079057;28;20559;-70
2021/06/29 04:27:39;;;;;;;8.77;7.90;;;;;;;;;;5059973;28;20452;-69
2021/06/29 04:30:17;;;;;;;8.47;7.67;;;;;;;;;;5072433;28;20452;-71
2021/06/29 04:32:46;;;;;;;8.30;7.40;;;;;;;;;;5062528;28;20831;-70
2021/06/29 04:35:18;;;;;;;8.27;7.47;;;;;;;;;;5076450;28;20444;-70
2021/06/29 04:37:54;;;;;;;8.83;8.03;;;;;;;;;;5066339;28;20507;-69
2021/06/29 04:40:32;;;;;;;8.80;8.00;;;;;;;;;;5076934;28;20499;-71
2021/06/29 04:43:02;;;;;;;8.70;7.90;;;;;;;;;;5076180;28;20894;-71
2021/06/29 04:45:35;;;;;;;8.60;7.40;;;;;;;;;;5075444;28;20545;-71
2021/06/29 04:48:05;;;;;;;10.10;9.10;;;;;;;;;;5076385;28;20449;-70
2021/06/29 04:50:44;;;;;;;9.80;8.90;;;;;;;;;;5076818;28;20564;-70
2021/06/29 04:53:13;;;;;;;13.00;8.77;;;;;;;;;;5076729;28;20724;-71
2021/06/29 04:55:41;;;;;;;8.07;7.37;;;;;;;;;;5076156;28;20453;-70
2021/06/29 04:58:08;;;;;;;10.00;7.70;;;;;;;;;;5076109;28;20453;-71
2021/06/29 05:00:44;;;;;;;9.70;6.70;;;;;;;;;;5076077;28;20482;-71
2021/06/29 05:03:12;;;;;;;7.33;6.73;;;;;;;;;;5076366;28;20480;-71
2021/06/29 05:05:43;;;;;;;7.50;6.90;;;;;;;;;;5075978;28;20480;-71
2021/06/29 05:08:13;;;;;;;8.23;7.53;;;;;;;;;;5075286;28;20448;-71
2021/06/29 05:10:41;;;;;;;8.27;7.43;;;;;;;;;;5074715;28;21092;-70
2021/06/29 05:13:15;;;;;;;8.80;7.20;;;;;;;;;;5075361;28;20561;-70
2021/06/29 05:15:44;;;;;;;9.27;6.90;;;;;;;;;;5075318;28;20445;-71
2021/06/29 05:18:12;;;;;;;8.00;7.20;;;;;;;;;;5075662;28;20468;-70
2021/06/29 05:20:39;;;;;;;14.33;8.97;;;;;;;;;;5072676;28;20468;-70
2021/06/29 05:23:07;;;;;;;7.47;6.63;;;;;;;;;;5073957;28;20457;-70
2021/06/29 05:25:35;;;;;;;12.40;6.20;;;;;;;;;;5063430;28;20489;-70
2021/06/29 05:28:03;;;;;;;8.83;6.97;;;;;;;;;;5054940;28;20457;-71
2021/06/29 05:30:31;;;;;;;7.40;6.70;;;;;;;;;;5054865;28;20457;-70
2021/06/29 05:33:21;;;;;;;7.00;6.23;;;;;;;;;;5054164;28;20453;-71
2021/06/29 05:35:49;;;;;;;7.13;6.33;;;;;;;;;;5053901;28;20457;-71
2021/06/29 05:38:23;;;;;;;7.70;7.00;;;;;;;;;;5053352;28;20445;-71
2021/06/29 05:40:51;;;;;;;7.53;6.73;;;;;;;;;;5054462;28;20465;-70
2021/06/29 05:43:19;;;;;;;6.97;5.93;;;;;;;;;;5053620;28;20457;-70
2021/06/29 05:45:46;;;;;;;6.93;6.33;;;;;;;;;;5053695;28;20504;-71
2021/06/29 05:48:17;;;;;;;7.10;6.40;;;;;;;;;;5054273;28;20458;-70
2021/06/29 05:50:47;;;;;;;8.67;6.60;;;;;;;;;;5054011;28;20456;-70
2021/06/29 05:53:15;;;;;;;7.60;6.57;;;;;;;;;;5054208;28;20456;-70
2021/06/29 05:55:44;;;;;;;8.90;6.73;;;;;;;;;;5053301;28;20453;-71
2021/06/29 05:58:13;;;;;;;9.20;6.20;;;;;;;;;;5072846;28;20514;-71
2021/06/29 06:00:41;;;;;;;7.10;6.40;;;;;;;;;;5072757;28;20468;-69
2021/06/29 06:03:08;;;;;;;8.83;6.50;;;;;;;;;;5073152;28;20918;-70
2021/06/29 06:05:36;;;;;;;7.47;6.77;;;;;;;;;;5059003;28;20473;-72
2021/06/29 06:08:07;;;;;;;7.60;6.87;;;;;;;;;;5053497;28;20523;-70
2021/06/29 06:10:35;;;;;;;7.43;6.73;;;;;;;;;;5053428;28;20540;-74
2021/06/29 06:13:02;;;;;;;7.77;6.97;;;;;;;;;;5052647;28;20477;-72
2021/06/29 06:15:30;;;;;;;7.57;6.50;;;;;;;;;;5052435;28;20457;-72
2021/06/29 06:17:58;;;;;;;6.03;5.53;;;;;;;;;;5052096;28;20537;-70
2021/06/29 06:20:28;;;;;;;6.90;6.30;;;;;;;;;;5050892;28;20865;-71
2021/06/29 06:22:58;;;;;;;7.00;6.23;;;;;;;;;;5051280;28;20459;-71
2021/06/29 06:25:28;;;;;;;10.70;7.03;;;;;;;;;;5052510;28;20818;-70
2021/06/29 06:27:56;;;;;;;6.10;5.50;;;;;;;;;;5060712;28;20509;-71
2021/06/29 06:30:24;;;;;;;7.50;6.03;;;;;;;;;;5069466;28;20457;-71
2021/06/29 06:32:53;;;;;;;5.60;5.10;;;;;;;;;;5069495;28;20449;-72
2021/06/29 06:35:24;;;;;;;5.57;5.07;;;;;;;;;;5053215;28;20457;-71
2021/06/29 06:37:52;;;;;;;6.00;5.23;;;;;;;;;;5053878;28;20536;-71
2021/06/29 06:40:23;;;;;;;7.03;6.27;;;;;;;;;;5053874;28;20869;-71
2021/06/29 06:42:53;;;;;;;7.10;5.80;;;;;;;;;;5053448;28;20575;-71
2021/06/29 06:45:23;;;;;;;6.60;6.00;;;;;;;;;;5052292;28;20453;-70
2021/06/29 06:47:51;;;;;;;6.60;5.97;;;;;;;;;;5053744;28;21013;-70
2021/06/29 06:50:19;;;;;;;7.70;6.73;;;;;;;;;;5070853;28;20456;-71
2021/06/29 06:52:50;;;;;;;9.73;5.90;;;;;;;;;;5067629;28;20465;-70
2021/06/29 06:55:25;;;;;;;7.20;6.13;;;;;;;;;;5053757;28;20464;-72
2021/06/29 06:57:57;;;;;;;5.60;5.10;;;;;;;;;;5055652;28;20453;-70
2021/06/29 07:00:26;;;;;;;7.03;5.67;;;;;;;;;;5063864;28;20476;-72
2021/06/29 07:02:58;;;;;;;5.80;5.30;;;;;;;;;;5058018;28;20433;-71
2021/06/29 07:05:26;;;;;;;7.60;5.87;;;;;;;;;;5068901;28;20733;-72
2021/06/29 07:07:54;;;;;;;6.47;5.40;;;;;;;;;;5078649;28;20864;-71
2021/06/29 07:10:24;;;;;;;16.30;6.30;;;;;;;;;;5078284;28;20456;-71
2021/06/29 07:13:00;;;;;;;6.03;5.43;;;;;;;;;;5076706;28;20497;-70
2021/06/29 07:15:29;;;;;;;7.50;5.97;;;;;;;;;;5073706;28;20452;-71
2021/06/29 07:17:57;;;;;;;6.70;4.83;;;;;;;;;;5070363;28;20455;-70
2021/06/29 07:20:27;;;;;;;7.57;5.53;;;;;;;;;;5065238;28;20880;-72
2021/06/29 07:22:57;;;;;;;6.57;4.67;;;;;;;;;;5062238;28;20472;-70
2021/06/29 07:25:27;;;;;;;5.80;5.10;;;;;;;;;;5061190;28;20469;-70
2021/06/29 07:27:58;;;;;;;5.37;4.87;;;;;;;;;;5058493;28;20485;-70
2021/06/29 07:30:26;;;;;;;7.80;4.97;;;;;;;;;;5057160;28;20812;-70
2021/06/29 07:32:58;;;;;;;5.67;5.17;;;;;;;;;;5058199;28;20461;-70
2021/06/29 07:35:30;;;;;;;5.67;4.83;;;;;;;;;;5063565;28;20466;-71
2021/06/29 07:37:59;;;;;;;5.57;5.03;;;;;;;;;;5062042;28;20534;-72
2021/06/29 07:40:31;;;;;;;6.53;4.80;;;;;;;;;;5056285;28;20473;-71
2021/06/29 07:43:02;;;;;;;6.20;4.50;;;;;;;;;;5055778;28;20449;-70
2021/06/29 07:45:32;;;;;;;5.50;5.00;;;;;;;;;;5058498;28;20469;-71
2021/06/29 07:48:03;;;;;;;6.63;5.00;;;;;;;;;;5069173;28;21697;-72
2021/06/29 07:50:31;;;;;;;6.93;4.63;;;;;;;;;;5057056;28;20575;-71
2021/06/29 07:53:01;;;;;;;6.70;5.30;;;;;;;;;;5056330;28;20826;-71
2021/06/29 07:55:29;;;;;;;6.70;5.20;;;;;;;;;;5055520;28;20744;-71
2021/06/29 07:57:57;;;;;;;9.73;5.23;;;;;;;;;;5056518;28;20445;-73
2021/06/29 08:00:27;;;;;;;5.50;5.00;;;;;;;;;;5055719;28;20858;-74
2021/06/29 08:02:55;;;;;;;5.87;5.27;;;;;;;;;;5056492;28;20434;-71
2021/06/29 08:05:23;;;;;;;5.60;5.10;;;;;;;;;;5064939;28;20468;-71
2021/06/29 08:07:58;;;;;;;6.07;4.97;;;;;;;;;;5060720;28;20503;-72
2021/06/29 08:10:26;;;;;;;5.67;5.17;;;;;;;;;;5065132;28;20479;-71
2021/06/29 08:12:54;;;;;;;5.37;4.80;;;;;;;;;;5064408;28;20462;-71
2021/06/29 08:15:23;;;;;;;5.53;5.03;;;;;;;;;;5054796;28;20456;-72
2021/06/29 08:17:53;;;;;;;6.23;5.53;;;;;;;;;;5055419;28;20469;-71
2021/06/29 08:20:20;;;;;;;8.70;6.37;;;;;;;;;;5055617;28;20757;-71
2021/06/29 08:22:49;;;;;;;6.67;5.50;;;;;;;;;;5055916;28;20469;-71
2021/06/29 08:25:17;;;;;;;5.13;4.63;;;;;;;;;;5056487;28;20741;-71
2021/06/29 08:27:44;;;;;;;6.07;4.47;;;;;;;;;;5055158;28;20489;-71
2021/06/29 08:30:13;;;;;;;5.57;4.53;;;;;;;;;;5055672;28;20469;-71
2021/06/29 08:32:47;;;;;;;8.27;5.23;;;;;;;;;;5055732;28;20492;-72
2021/06/29 08:35:17;;;;;;;5.97;4.90;;;;;;;;;;5063645;28;20524;-71
2021/06/29 08:37:45;;;;;;;5.83;4.33;;;;;;;;;;5056060;28;20506;-70
2021/06/29 08:40:14;;;;;;;5.37;4.80;;;;;;;;;;5059270;28;21065;-70
2021/06/29 08:42:42;;;;;;;5.50;5.00;;;;;;;;;;5075031;28;20492;-71
2021/06/29 08:45:12;;;;;;;6.03;4.90;;;;;;;;;;5074642;28;20560;-71
2021/06/29 08:47:40;;;;;;;7.93;6.20;;;;;;;;;;5073127;28;20546;-71
2021/06/29 08:50:10;;;;;;;5.27;4.77;;;;;;;;;;5074482;28;20460;-69
2021/06/29 08:52:40;;;;;;;5.93;5.20;;;;;;;;;;5075363;28;20461;-71
2021/06/29 08:55:12;;;;;;;6.27;4.63;;;;;;;;;;5071840;28;20461;-71
2021/06/29 08:57:40;;;;;;;9.40;4.57;;;;;;;;;;5059064;28;20457;-71
2021/06/29 09:00:09;;;;;;;9.50;4.57;;;;;;;;;;5063429;28;20469;-72
2021/06/29 09:02:39;;;;;;;11.40;5.90;;;;;;;;;;5072578;28;20517;-71
2021/06/29 09:05:19;;;;;;;7.03;5.20;;;;;;;;;;5069530;28;20457;-71
2021/06/29 09:07:50;;;;;;;6.40;5.37;;;;;;;;;;5054652;28;20825;-71
2021/06/29 09:10:18;;;;;;;6.57;5.90;;;;;;;;;;5054298;28;20741;-69
2021/06/29 09:12:49;;;;;;;5.97;5.37;;;;;;;;;;5059018;28;20465;-71
2021/06/29 09:15:28;;;;;;;9.07;6.00;;;;;;;;;;5057423;28;20473;-71
2021/06/29 09:17:57;;;;;;;5.83;5.27;;;;;;;;;;5062491;28;20935;-71
2021/06/29 09:20:29;;;;;;;6.37;4.80;;;;;;;;;;5054184;28;20464;-71
2021/06/29 09:23:01;;;;;;;5.60;5.07;;;;;;;;;;5051487;28;20560;-70
2021/06/29 09:25:31;;;;;;;5.13;4.40;;;;;;;;;;5059058;28;20457;-71
2021/06/29 09:27:59;;;;;;;6.63;4.50;;;;;;;;;;5054615;28;20589;-71
2021/06/29 09:30:33;;;;;;;4.20;3.53;;;;;;;;;;5054473;28;20465;-71
2021/06/29 09:33:01;;;;;;;4.37;3.97;;;;;;;;;;5061847;28;20464;-71
2021/06/29 09:35:30;;;;;;;4.37;3.97;;;;;;;;;;5067103;28;20496;-71
2021/06/29 09:37:59;;;;;;;5.63;3.60;;;;;;;;;;5067288;28;20475;-71
2021/06/29 09:40:28;;;;;;;4.90;3.80;;;;;;;;;;5067300;28;20453;-72
2021/06/29 09:43:07;;;;;;;5.60;4.20;;;;;;;;;;5054111;28;20457;-71
2021/06/29 09:45:36;;;;;;;7.43;5.40;;;;;;;;;;5053271;28;20460;-71
2021/06/29 09:48:09;;;;;;;8.00;7.17;;;;;;;;;;5055202;28;20485;-70
2021/06/29 09:50:38;;;;;;;4.47;4.00;;;;;;;;;;5053662;28;20453;-71
2021/06/29 09:53:15;;;;;;;7.43;5.03;;;;;;;;;;5064137;28;20471;-71
2021/06/29 09:55:45;;;;;;;5.57;4.97;;;;;;;;;;5060749;28;20461;-71
2021/06/29 09:58:14;;;;;;;7.00;3.97;;;;;;;;;;5055255;28;20468;-71
2021/06/29 10:00:43;;;;;;;6.20;4.40;;;;;;;;;;5062029;28;20476;-71
2021/06/29 10:03:24;;;;;;;5.33;4.83;;;;;;;;;;5057428;28;20467;-71
2021/06/29 10:05:55;;;;;;;6.93;5.40;;;;;;;;;;5074138;28;20543;-71
2021/06/29 10:08:26;;;;;;;4.47;4.07;;;;;;;;;;5052965;28;20497;-71
2021/06/29 10:11:13;;;;;;;6.07;5.47;;;;;;;;;;5065940;28;20506;-71
2021/06/29 10:13:43;;;;;;;5.33;4.10;;;;;;;;;;5054399;28;20518;-69
2021/06/29 10:16:12;;;;;;;4.53;4.13;;;;;;;;;;5055011;28;20453;-71
2021/06/29 10:18:53;;;;;;;5.00;3.97;;;;;;;;;;5053143;28;20839;-69
2021/06/29 10:21:23;;;;;;;5.73;3.90;;;;;;;;;;5053866;28;20795;-71
2021/06/29 10:23:54;;;;;;;4.63;4.23;;;;;;;;;;5053782;28;20449;-71
2021/06/29 10:26:23;;;;;;;5.50;4.43;;;;;;;;;;5053395;28;21028;-71
2021/06/29 10:28:51;;;;;;;7.23;4.90;;;;;;;;;;5061278;28;20496;-72
2021/06/29 10:31:21;;;;;;;5.20;4.50;;;;;;;;;;5053964;28;20782;-71
2021/06/29 10:33:49;;;;;;;8.40;4.20;;;;;;;;;;5056495;28;20472;-71
2021/06/29 10:36:18;;;;;;;6.20;3.90;;;;;;;;;;5061466;28;20456;-71
2021/06/29 10:38:48;;;;;;;3.80;3.43;;;;;;;;;;5069712;28;20499;-70
2021/06/29 10:41:18;;;;;;;6.43;4.00;;;;;;;;;;5067078;28;20514;-71
2021/06/29 10:43:47;;;;;;;3.90;2.87;;;;;;;;;;5063576;28;20465;-71
2021/06/29 10:46:18;;;;;;;4.33;3.67;;;;;;;;;;5059150;28;20502;-70
2021/06/29 10:48:49;;;;;;;2.83;2.17;;;;;;;;;;5060052;28;20497;-70
2021/06/29 10:51:17;;;;;;;3.00;2.43;;;;;;;;;;5061224;28;20548;-71
2021/06/29 10:53:46;;;;;;;12.67;11.43;;;;;;;;;;5058341;28;20483;-71
2021/06/29 10:56:18;;;;;;;6.60;3.80;;;;;;;;;;5059335;28;20456;-71
2021/06/29 10:58:56;;;;;;;3.10;2.30;;;;;;;;;;5056728;28;20524;-72
2021/06/29 11:01:32;;;;;;;3.20;2.50;;;;;;;;;;5057665;28;20545;-71
2021/06/29 11:04:04;;;;;;;5.00;3.57;;;;;;;;;;5056139;28;20457;-71
2021/06/29 11:06:46;;;;;;;3.43;2.40;;;;;;;;;;5059094;28;20471;-72
2021/06/29 11:09:30;;;;;;;4.30;2.60;;;;;;;;;;5059705;28;20469;-71
2021/06/29 11:12:22;;;;;;;2.37;1.93;;;;;;;;;;5062049;28;20467;-72
2021/06/29 11:14:53;;;;;;;3.83;1.97;;;;;;;;;;5073558;28;20457;-73
2021/06/29 11:17:22;;;;;;;4.10;3.37;;;;;;;;;;5076984;28;20456;-72
2021/06/29 11:20:09;;;;;;;4.37;3.10;;;;;;;;;;5070953;28;20843;-72
2021/06/29 11:22:53;;;;;;;4.70;3.40;;;;;;;;;;5072055;28;20444;-73
2021/06/29 11:25:39;;;;;;;4.20;2.40;;;;;;;;;;5075168;28;20494;-72
2021/06/29 11:28:12;;;;;;;2.90;2.07;;;;;;;;;;5077313;28;20728;-72
2021/06/29 11:31:10;;;;;;;2.90;2.50;;;;;;;;;;5067902;28;21041;-71
2021/06/29 11:33:46;;;;;;;3.30;2.23;;;;;;;;;;5077476;28;20682;-71
2021/06/29 11:36:34;;;;;;;3.00;2.70;;;;;;;;;;5061196;28;20449;-70
2021/06/29 11:39:03;;;;;;;4.20;2.83;;;;;;;;;;5065596;28;20464;-71
2021/06/29 11:41:32;;;;;;;5.63;3.83;;;;;;;;;;5076848;28;20499;-71
2021/06/29 11:44:03;;;;;;;3.50;3.13;;;;;;;;;;5075511;28;20452;-70
2021/06/29 11:46:47;;;;;;;3.30;2.60;;;;;;;;;;5073693;28;20449;-69
2021/06/29 11:49:18;;;;;;;2.60;2.40;;;;;;;;;;5062938;28;20492;-71
2021/06/29 11:51:52;;;;;;;4.60;3.43;;;;;;;;;;5057263;28;20449;-71
2021/06/29 11:54:27;;;;;;;3.80;2.70;;;;;;;;;;5075414;28;20548;-71
2021/06/29 11:56:56;;;;;;;4.30;3.03;;;;;;;;;;5074670;28;20468;-70
2021/06/29 11:59:31;;;;;;;3.80;2.83;;;;;;;;;;5057798;28;20877;-71
2021/06/29 12:02:02;;;;;;;3.70;3.07;;;;;;;;;;5064099;28;20945;-71
2021/06/29 12:04:33;;;;;;;3.83;3.53;;;;;;;;;;5066718;28;20888;-71
2021/06/29 12:07:05;;;;;;;3.60;3.27;;;;;;;;;;5058887;28;20457;-72
2021/06/29 12:09:36;;;;;;;5.00;3.43;;;;;;;;;;5058217;28;20995;-71
2021/06/29 12:12:21;;;;;;;4.00;3.00;;;;;;;;;;5056513;28;20519;-71
2021/06/29 12:15:04;;;;;;;3.73;2.67;;;;;;;;;;5059286;28;20445;-71
2021/06/29 12:17:32;;;;;;;3.03;2.27;;;;;;;;;;5050787;28;20479;-71
2021/06/29 12:20:10;;;;;;;3.73;2.50;;;;;;;;;;5055010;28;20448;-70
2021/06/29 12:22:39;;;;;;;5.20;3.10;;;;;;;;;;5057457;28;20469;-71
2021/06/29 12:25:08;;;;;;;3.30;2.20;;;;;;;;;;5055671;28;20457;-69
2021/06/29 12:27:44;;;;;;;7.17;5.40;;;;;;;;;;5056762;28;20776;-70
2021/06/29 12:30:25;;;;;;;4.07;2.33;;;;;;;;;;5058158;28;20548;-70
2021/06/29 12:32:53;;;;;;;5.83;3.93;;;;;;;;;;5073470;28;20543;-69
2021/06/29 12:35:23;;;;;;;3.47;3.17;;;;;;;;;;5063451;28;20460;-71
2021/06/29 12:38:03;;;;;;;4.70;3.00;;;;;;;;;;5066659;28;20451;-71
2021/06/29 12:40:34;;;;;;;4.90;3.93;;;;;;;;;;5075350;28;20895;-71
2021/06/29 12:43:18;;;;;;;6.93;4.20;;;;;;;;;;5059867;28;20819;-70
2021/06/29 12:45:48;;;;;;;3.97;3.40;;;;;;;;;;5066323;28;20503;-71
2021/06/29 12:48:25;;;;;;;5.27;4.20;;;;;;;;;;5064455;28;21230;-71
2021/06/29 12:51:01;;;;;;;4.47;3.30;;;;;;;;;;5055663;28;20461;-71
2021/06/29 12:53:51;;;;;;;4.30;3.70;;;;;;;;;;5069963;28;20449;-71
2021/06/29 12:56:19;;;;;;;4.00;3.30;;;;;;;;;;5071182;28;20457;-70
2021/06/29 12:58:48;;;;;;;4.33;3.53;;;;;;;;;;5075963;28;20550;-70
2021/06/29 13:01:17;;;;;;;4.40;4.00;;;;;;;;;;5067258;28;20476;-70
2021/06/29 13:03:46;;;;;;;4.67;3.70;;;;;;;;;;5056934;28;20449;-70
2021/06/29 13:06:22;;;;;;;6.93;3.97;;;;;;;;;;5055286;28;20464;-70
2021/06/29 13:11:35;;;;;;;11.60;6.57;;;;;;;;;;5064816;28;20819;-70
2021/06/29 13:14:05;;;;;;;5.20;4.47;;;;;;;;;;5057073;28;20460;-70
2021/06/29 13:16:40;;;;;;;4.30;3.27;;;;;;;;;;5068784;28;20441;-70
2021/06/29 13:19:21;;;;;;;3.63;3.33;;;;;;;;;;5068976;28;20452;-70
2021/06/29 13:22:15;;;;;;;4.30;3.90;;;;;;;;;;5061141;28;20452;-71
2021/06/29 13:24:57;;;;;;;3.93;3.53;;;;;;;;;;5045699;28;20475;-71
2021/06/29 13:27:28;;;;;;;3.43;3.10;;;;;;;;;;5059900;28;20461;-69
2021/06/29 13:30:01;;;;;;;3.43;3.13;;;;;;;;;;5064345;28;20469;-70
2021/06/29 13:32:31;;;;;;;12.07;11.00;;;;;;;;;;5064436;28;20556;-71
2021/06/29 13:35:03;;;;;;;3.77;3.47;;;;;;;;;;5056170;28;20453;-71
2021/06/29 13:37:40;;;;;;;4.40;4.00;;;;;;;;;;5056362;28;20552;-70
2021/06/29 13:40:19;;;;;;;4.90;3.70;;;;;;;;;;5060783;28;21066;-71
2021/06/29 13:42:48;;;;;;;5.23;4.67;;;;;;;;;;5075913;28;20456;-70
2021/06/29 13:45:19;;;;;;;5.60;4.37;;;;;;;;;;5060220;28;20461;-71
2021/06/29 13:47:48;;;;;;;6.80;4.10;;;;;;;;;;5059149;28;20565;-72
2021/06/29 13:50:34;;;;;;;4.30;3.90;;;;;;;;;;5056977;28;20541;-69
2021/06/29 13:53:10;;;;;;;6.90;6.20;;;;;;;;;;5066225;28;20449;-71
2021/06/29 13:55:50;;;;;;;5.07;4.60;;;;;;;;;;5057296;28;20545;-70
2021/06/29 13:58:21;;;;;;;6.10;5.50;;;;;;;;;;5055866;28;20457;-71
2021/06/29 14:00:50;;;;;;;12.77;5.80;;;;;;;;;;5055820;28;21051;-70
2021/06/29 14:03:30;;;;;;;7.57;6.27;;;;;;;;;;5056012;28;20457;-71
2021/06/29 14:06:15;;;;;;;5.97;5.37;;;;;;;;;;5074899;28;20520;-72
2021/06/29 14:08:50;;;;;;;5.50;5.00;;;;;;;;;;5073001;28;20561;-72
2021/06/29 14:11:27;;;;;;;6.30;4.00;;;;;;;;;;5059227;28;20472;-71
2021/06/29 14:13:57;;;;;;;5.00;4.47;;;;;;;;;;5058869;28;20566;-72
2021/06/29 14:16:36;;;;;;;5.63;4.70;;;;;;;;;;5066213;28;20483;-72
2021/06/29 14:19:05;;;;;;;5.90;5.30;;;;;;;;;;5060982;28;20461;-71
2021/06/29 14:21:40;;;;;;;4.80;4.40;;;;;;;;;;5067569;28;21168;-71
2021/06/29 14:24:10;;;;;;;9.30;5.47;;;;;;;;;;5065714;28;20514;-71
2021/06/29 14:26:49;;;;;;;5.40;4.90;;;;;;;;;;5066163;28;20452;-71
2021/06/29 14:29:19;;;;;;;5.93;5.33;;;;;;;;;;5072804;28;20565;-70
2021/06/29 14:31:57;;;;;;;5.13;4.73;;;;;;;;;;5061326;28;20465;-71
2021/06/29 14:34:25;;;;;;;7.97;5.50;;;;;;;;;;5059714;28;20458;-73
2021/06/29 14:36:53;;;;;;;9.40;6.10;;;;;;;;;;5066237;28;20441;-73
2021/06/29 14:39:22;;;;;;;8.87;6.10;;;;;;;;;;5062297;28;20512;-72
2021/06/29 14:41:51;;;;;;;5.97;5.47;;;;;;;;;;5068810;28;20464;-72
2021/06/29 14:44:28;;;;;;;6.67;6.07;;;;;;;;;;5059911;28;20452;-72
2021/06/29 14:46:58;;;;;;;7.13;6.50;;;;;;;;;;5061922;28;20467;-73
2021/06/29 14:49:26;;;;;;;9.13;8.20;;;;;;;;;;5057910;28;20511;-72
2021/06/29 14:51:55;;;;;;;6.93;6.33;;;;;;;;;;5062084;28;20481;-73
2021/06/29 14:54:23;;;;;;;9.47;7.30;;;;;;;;;;5065381;28;20445;-70
2021/06/29 14:57:00;;;;;;;9.27;8.37;;;;;;;;;;5065637;28;20461;-72
2021/06/29 14:59:29;;;;;;;6.70;6.17;;;;;;;;;;5059301;28;20448;-71
2021/06/29 15:02:02;;;;;;;6.77;6.17;;;;;;;;;;5058570;28;20883;-73
2021/06/29 15:07:20;;;;;;;6.93;6.33;;;;;;;;;;5066038;28;20554;-72
2021/06/29 15:09:50;;;;;;;8.43;7.67;;;;;;;;;;5058145;28;20481;-72